createdAt,value
2023-04-08T10:31:22.144Z,20.41
2023-04-08T10:34:26.446Z,21.04
2023-04-08T10:37:28.095Z,21.24
2023-04-08T10:40:39.118Z,21.17
2023-04-08T10:43:40.831Z,21.10
2023-04-08T10:46:42.416Z,21.48
2023-04-08T10:59:52.519Z,21.71
2023-04-08T11:02:54.697Z,21.59
2023-04-08T11:05:58.540Z,21.11
2023-04-08T11:09:04.218Z,22.14
2023-04-08T11:12:05.862Z,22.11
2023-04-08T11:15:08.751Z,21.95
2023-04-08T11:18:10.933Z,22.20
2023-04-08T11:21:12.624Z,22.31
2023-04-08T11:24:14.410Z,22.06
2023-04-08T11:27:16.313Z,21.66
2023-04-08T11:30:18.013Z,21.36
2023-04-08T11:33:19.674Z,21.15
2023-04-08T11:36:21.923Z,20.90
2023-04-08T11:39:24.033Z,20.70
2023-04-08T15:37:06.385Z,9.79
2023-04-08T15:40:08.660Z,8.93
2023-04-08T15:43:10.832Z,7.99
2023-04-08T15:46:17.764Z,7.15
2023-04-08T15:49:19.381Z,6.77
2023-04-08T15:52:20.997Z,6.59
2023-04-08T15:55:22.721Z,6.61
2023-04-08T15:58:24.315Z,6.54
2023-04-08T16:01:25.956Z,6.42
2023-04-08T16:04:27.995Z,6.35
2023-04-08T16:07:29.808Z,6.38
2023-04-08T16:10:31.516Z,9.85
2023-04-08T16:13:34.200Z,7.13
2023-04-08T16:19:51.859Z,6.37
2023-04-08T16:22:53.714Z,6.17
2023-04-08T16:25:55.962Z,6.04
2023-04-08T16:28:57.522Z,6.03
2023-04-08T16:31:59.179Z,5.93
2023-04-08T16:35:00.967Z,5.91
2023-04-08T16:38:02.541Z,10.35
2023-04-08T16:41:06.314Z,6.94
2023-04-08T16:44:07.919Z,6.03
2023-04-08T16:47:09.555Z,5.96
2023-04-08T16:50:11.766Z,5.81
2023-04-08T16:53:13.351Z,5.68
2023-04-08T16:56:16.241Z,5.59
2023-04-08T16:59:17.838Z,5.42
2023-04-08T17:02:19.478Z,5.45
2023-04-08T17:05:25.046Z,5.43
2023-04-08T17:08:27.056Z,5.39
2023-04-08T17:11:33.676Z,5.39
2023-04-08T17:14:35.660Z,5.25
2023-04-08T17:17:37.310Z,5.15
2023-04-08T17:20:38.984Z,5.25
2023-04-08T17:23:40.669Z,5.24
2023-04-08T17:26:46.227Z,5.19
2023-04-08T17:29:47.784Z,5.21
2023-04-08T17:32:49.375Z,5.12
2023-04-08T17:35:55.510Z,4.96
2023-04-08T17:38:57.587Z,5.02
2023-04-08T17:41:59.443Z,5.00
2023-04-08T17:45:02.677Z,4.91
2023-04-08T17:48:07.382Z,4.92
2023-04-08T17:51:10.606Z,4.87
2023-04-08T17:54:12.350Z,4.88
2023-04-08T17:57:14.239Z,4.81
2023-04-08T18:00:16.394Z,4.79
2023-04-08T18:03:18.722Z,4.71
2023-04-08T18:06:20.440Z,4.75
2023-04-08T18:09:22.001Z,4.83
2023-04-08T18:12:23.500Z,4.82
2023-04-08T18:15:25.265Z,4.72
2023-04-08T18:18:26.916Z,4.74
2023-04-08T18:21:28.513Z,4.75
2023-04-08T18:24:29.946Z,4.82
2023-04-08T18:27:31.580Z,4.67
2023-04-08T18:30:33.115Z,4.77
2023-04-08T18:33:34.752Z,4.66
2023-04-08T18:36:36.364Z,4.63
2023-04-08T18:39:42.427Z,4.55
2023-04-08T18:42:44.030Z,4.53
2023-04-08T18:45:45.789Z,4.53
2023-04-08T18:48:49.175Z,4.50
2023-04-08T18:52:01.373Z,4.39
2023-04-08T18:55:05.363Z,4.37
2023-04-08T18:58:07.403Z,4.24
2023-04-08T19:01:09.570Z,4.27
2023-04-08T19:04:11.707Z,4.24
2023-04-08T19:07:13.368Z,4.18
2023-04-08T19:10:14.839Z,4.20
2023-04-08T19:13:16.430Z,3.98
2023-04-08T19:16:18.063Z,3.98
2023-04-08T19:19:19.577Z,4.10
2023-04-08T19:22:21.337Z,3.99
2023-04-08T19:25:22.937Z,4.07
2023-04-08T19:28:24.389Z,4.07
2023-04-08T19:31:26.107Z,4.08
2023-04-08T19:34:27.780Z,4.01
2023-04-08T19:37:29.228Z,4.01
2023-04-08T19:40:30.962Z,4.02
2023-04-08T19:43:32.514Z,3.72
2023-04-08T19:46:34.157Z,3.95
2023-04-08T19:49:35.653Z,3.92
2023-04-08T19:52:37.251Z,3.82
2023-04-08T19:55:38.772Z,3.88
2023-04-08T19:58:40.370Z,3.79
2023-04-08T20:01:41.970Z,3.90
2023-04-08T20:04:44.775Z,3.87
2023-04-08T20:07:46.366Z,3.86
2023-04-08T20:10:49.536Z,3.85
2023-04-08T20:13:51.520Z,3.66
2023-04-08T20:16:53.420Z,3.84
2023-04-08T20:19:55.003Z,3.82
2023-04-08T20:22:56.603Z,3.80
2023-04-08T20:25:58.216Z,3.83
2023-04-08T20:28:59.741Z,3.82
2023-04-08T20:32:01.354Z,3.83
2023-04-08T20:35:03.374Z,3.81
2023-04-08T20:38:05.732Z,3.83
2023-04-08T20:41:07.284Z,3.81
2023-04-08T20:44:10.655Z,3.80
2023-04-08T20:47:12.284Z,3.82
2023-04-08T20:50:13.856Z,3.89
2023-04-08T20:53:17.094Z,3.92
2023-04-08T20:56:18.723Z,3.82
2023-04-08T20:59:20.355Z,3.91
2023-04-08T21:02:22.202Z,3.81
2023-04-08T21:05:23.927Z,3.85
2023-04-08T21:08:25.436Z,3.97
2023-04-08T21:11:28.485Z,3.99
2023-04-08T21:14:32.013Z,3.98
2023-04-08T21:17:33.633Z,3.96
2023-04-08T21:20:35.258Z,3.98
2023-04-08T21:23:36.935Z,3.93
2023-04-08T21:26:38.489Z,3.89
2023-04-08T21:29:39.943Z,3.92
2023-04-08T21:32:41.513Z,3.86
2023-04-08T21:35:43.020Z,3.97
2023-04-08T21:38:44.662Z,3.93
2023-04-08T21:41:46.494Z,3.98
2023-04-08T21:44:51.591Z,3.93
2023-04-08T21:47:53.324Z,3.88
2023-04-08T21:50:55.338Z,3.81
2023-04-08T21:53:56.939Z,3.82
2023-04-08T21:56:58.409Z,3.78
2023-04-08T22:00:00.011Z,3.67
2023-04-08T22:03:02.236Z,3.73
2023-04-08T22:06:04.270Z,3.65
2023-04-08T22:09:05.771Z,3.77
2023-04-08T22:12:08.682Z,3.70
2023-04-08T22:15:10.641Z,3.65
2023-04-08T22:18:12.198Z,3.65
2023-04-08T22:21:13.755Z,3.59
2023-04-08T22:24:15.457Z,3.59
2023-04-08T22:27:17.089Z,3.55
2023-04-08T22:30:19.097Z,3.51
2023-04-08T22:33:21.066Z,3.44
2023-04-08T22:36:22.603Z,3.34
2023-04-08T22:39:26.138Z,3.31
2023-04-08T22:42:27.912Z,3.32
2023-04-08T22:45:29.481Z,3.26
2023-04-08T22:48:30.904Z,3.22
2023-04-08T22:51:32.658Z,3.14
2023-04-08T22:54:34.222Z,3.06
2023-04-08T22:57:35.819Z,3.17
2023-04-08T23:00:37.375Z,3.16
2023-04-08T23:03:39.043Z,3.10
2023-04-08T23:06:40.663Z,2.96
2023-04-08T23:09:42.089Z,3.17
2023-04-08T23:12:43.641Z,3.15
2023-04-08T23:15:45.182Z,3.17
2023-04-08T23:18:46.804Z,2.89
2023-04-08T23:21:48.410Z,3.03
2023-04-08T23:24:49.980Z,3.05
2023-04-08T23:27:51.505Z,2.84
2023-04-08T23:30:53.114Z,2.79
2023-04-08T23:33:54.530Z,2.74
2023-04-08T23:36:56.152Z,2.66
2023-04-08T23:39:57.742Z,2.68
2023-04-08T23:42:59.485Z,2.59
2023-04-08T23:46:00.987Z,2.68
2023-04-08T23:49:02.637Z,2.71
2023-04-08T23:52:04.266Z,2.71
2023-04-08T23:55:06.251Z,2.82
2023-04-08T23:58:07.777Z,2.92
